Time;durP1;ratioP1;P1;durP2;ratioP2;P2;SDS_P1;SDS_P2;PMS_P1;PMS_P2;Temp;Humidity;BMP_temperature;BMP_pressure;BME280_temperature;BME280_humidity;BME280_pressure;Samples;Min_cycle;Max_cycle;Signal;HPM_P1;HPM_P2
2022/07/04 00:01:52;;;;;;;7.07;3.83;;;23.50;79.60;;;23.93;53.97;95195.31;5057901;28;20471;-55
2022/07/04 00:04:19;;;;;;;7.03;4.20;;;23.40;79.50;;;23.90;53.97;95193.06;5059662;28;20556;-55
2022/07/04 00:06:46;;;;;;;5.20;3.50;;;23.40;79.50;;;23.87;54.10;95198.84;5058030;28;20475;-55
2022/07/04 00:09:15;;;;;;;7.47;4.00;;;23.30;79.40;;;23.85;53.98;95194.75;5056646;28;20454;-55
2022/07/04 00:11:42;;;;;;;17.37;3.73;;;23.30;79.40;;;23.80;53.53;95193.50;5058083;28;20472;-55
2022/07/04 00:14:09;;;;;;;4.50;3.20;;;23.30;79.30;;;23.78;53.53;95200.09;5060918;28;20459;-56
2022/07/04 00:16:37;;;;;;;5.33;3.57;;;23.20;78.90;;;23.75;53.69;95200.53;5055530;28;20478;-56
2022/07/04 00:19:04;;;;;;;6.80;3.60;;;23.20;78.80;;;23.71;53.26;95200.16;5059624;28;20490;-55
2022/07/04 00:21:31;;;;;;;10.93;4.40;;;23.20;78.60;;;23.69;52.91;95199.56;5056996;28;20680;-55
2022/07/04 00:23:59;;;;;;;6.73;3.77;;;23.10;78.30;;;23.63;53.02;95192.34;5060810;28;20450;-55
2022/07/04 00:26:27;;;;;;;4.97;3.37;;;23.10;78.20;;;23.60;52.53;95190.91;5056600;28;20472;-55
2022/07/04 00:28:55;;;;;;;6.97;3.33;;;23.10;78.00;;;23.59;52.66;95202.69;5060421;28;20443;-56
2022/07/04 00:31:22;;;;;;;3.63;3.33;;;23.00;77.90;;;23.53;53.26;95190.13;5059950;28;20471;-55
2022/07/04 00:33:49;;;;;;;6.17;3.73;;;23.00;77.80;;;;;;5064638;28;20504;-54
2022/07/04 00:36:17;;;;;;;6.93;3.60;;;23.00;77.70;;;23.41;53.05;95181.09;5061571;28;20471;-55
2022/07/04 00:38:44;;;;;;;4.03;3.73;;;22.90;77.70;;;23.37;52.69;95171.78;5064396;28;20490;-54
2022/07/04 00:41:11;;;;;;;6.70;3.20;;;22.90;77.60;;;23.34;52.50;95172.22;5061641;28;20482;-56
2022/07/04 00:43:40;;;;;;;4.00;3.40;;;22.80;77.50;;;23.30;52.80;95177.19;5063633;28;20459;-55
2022/07/04 00:46:07;;;;;;;5.67;3.50;;;22.80;77.50;;;23.24;52.67;95184.22;5062870;28;20479;-56
2022/07/04 00:48:35;;;;;;;4.20;3.30;;;22.70;77.30;;;23.21;52.34;95175.78;5055954;28;20457;-56
2022/07/04 00:51:02;;;;;;;3.30;3.13;;;22.70;77.30;;;23.17;52.82;95180.72;5061971;28;20474;-54
2022/07/04 00:53:29;;;;;;;3.43;3.23;;;22.70;77.30;;;23.12;52.61;95175.19;5064460;28;20457;-54
2022/07/04 00:55:57;;;;;;;5.60;3.40;;;22.60;77.30;;;23.11;52.97;95181.56;5061392;28;20545;-55
2022/07/04 00:58:24;;;;;;;11.83;3.40;;;22.60;77.40;;;23.11;52.54;95178.88;5062620;28;20520;-56
2022/07/04 01:00:53;;;;;;;10.47;3.87;;;22.60;77.50;;;23.12;52.72;95174.38;5062159;28;20498;-55
2022/07/04 01:03:20;;;;;;;2.90;2.70;;;22.60;77.50;;;23.11;53.09;95176.19;5061302;28;20960;-55
2022/07/04 01:05:48;;;;;;;6.80;3.37;;;22.60;77.30;;;23.09;53.12;95178.28;5064146;28;20916;-55
2022/07/04 01:08:15;;;;;;;3.70;3.10;;;22.60;77.30;;;23.08;52.69;95174.78;5060787;28;20443;-55
2022/07/04 01:10:43;;;;;;;4.40;3.33;;;22.60;77.10;;;23.08;52.67;95185.50;5063230;28;20575;-56
2022/07/04 01:13:21;;;;;;;5.23;3.73;;;22.60;77.00;;;23.06;52.28;95176.81;5062858;28;20451;-55
2022/07/04 01:15:48;;;;;;;5.50;2.93;;;22.60;76.80;;;23.06;52.55;95186.72;5060801;28;20511;-56
2022/07/04 01:18:17;;;;;;;3.70;3.37;;;22.50;76.60;;;23.05;52.54;95183.22;5059755;28;20514;-55
2022/07/04 01:20:45;;;;;;;3.30;3.07;;;22.50;76.60;;;23.06;52.64;95184.03;5064214;28;20543;-55
2022/07/04 01:23:13;;;;;;;3.70;3.40;;;22.50;76.50;;;23.06;52.51;95184.03;5060315;28;20447;-55
2022/07/04 01:25:40;;;;;;;3.90;3.60;;;22.60;76.40;;;23.06;52.60;95178.66;5063502;28;20490;-55
2022/07/04 01:28:07;;;;;;;5.00;3.53;;;22.50;76.40;;;23.05;52.19;95182.38;5060392;28;20454;-56
2022/07/04 01:30:35;;;;;;;6.97;3.50;;;22.50;76.00;;;23.03;52.00;95182.59;5064304;28;20553;-55
2022/07/04 01:33:02;;;;;;;4.80;3.10;;;22.50;75.90;;;23.02;52.27;95180.13;5059852;28;20455;-56
2022/07/04 01:35:30;;;;;;;7.53;3.60;;;22.50;75.90;;;23.03;52.70;95184.47;5062778;28;20474;-55
2022/07/04 01:37:58;;;;;;;10.50;4.00;;;22.50;76.40;;;23.02;52.44;95172.91;5061814;28;20479;-57
2022/07/04 01:40:26;;;;;;;13.60;3.40;;;22.50;75.90;;;23.01;52.30;95189.22;5055824;28;20946;-55
2022/07/04 01:42:53;;;;;;;6.33;3.70;;;22.50;76.00;;;22.98;52.21;95187.75;5060692;28;20879;-55
2022/07/04 01:45:20;;;;;;;5.53;3.13;;;22.50;75.90;;;22.99;51.79;95191.25;5063142;28;20656;-54
2022/07/04 01:47:48;;;;;;;2.93;2.70;;;22.50;75.90;;;22.99;52.17;95192.09;5060037;28;21201;-55
2022/07/04 01:50:15;;;;;;;4.43;3.37;;;22.50;76.00;;;23.00;52.34;95185.69;5062628;28;20470;-54
2022/07/04 01:52:42;;;;;;;10.73;3.40;;;22.50;75.90;;;23.02;51.93;95188.16;5060605;28;20451;-56
2022/07/04 01:55:12;;;;;;;9.93;3.17;;;22.50;75.90;;;23.02;52.25;95183.63;5063863;28;20555;-54
2022/07/04 01:57:39;;;;;;;5.30;3.40;;;22.50;76.00;;;23.04;52.51;95188.78;5058452;28;20452;-56
2022/07/04 02:02:56;;;;;;;6.83;5.90;;;22.50;77.90;;;23.03;53.98;95187.13;5045488;28;20478;-55
2022/07/04 02:05:24;;;;;;;7.70;5.70;;;22.50;79.00;;;23.02;53.49;95190.84;5059714;28;20483;-55
2022/07/04 02:07:51;;;;;;;6.73;6.03;;;22.50;79.80;;;23.00;54.50;95193.75;5061416;28;20451;-54
2022/07/04 02:10:20;;;;;;;9.13;6.33;;;22.50;80.90;;;23.00;54.54;95195.59;5060046;28;20546;-55
2022/07/04 02:15:29;;;;;;;6.87;6.37;;;22.50;83.10;;;23.01;55.54;95195.41;5056349;28;21022;-56
2022/07/04 02:17:56;;;;;;;11.83;6.80;;;22.50;83.70;;;23.00;56.04;95199.09;5059664;28;20454;-55
2022/07/04 02:20:24;;;;;;;9.33;7.40;;;22.50;84.00;;;22.98;56.31;95201.19;5061184;28;20498;-55
2022/07/04 02:22:51;;;;;;;6.93;6.43;;;22.50;84.10;;;22.96;56.85;95205.09;5060650;28;20963;-54
2022/07/04 02:25:20;;;;;;;12.03;6.40;;;22.50;84.80;;;22.92;56.45;95210.06;5061652;28;20472;-55
2022/07/04 02:27:47;;;;;;;9.47;6.97;;;22.40;85.10;;;22.89;57.03;95203.25;5059529;28;20824;-55
2022/07/04 02:30:14;;;;;;;9.43;6.73;;;22.40;86.10;;;22.86;57.03;95197.47;5058895;28;20532;-56
2022/07/04 02:32:42;;;;;;;8.27;7.47;;;22.40;86.60;;;22.84;57.75;95203.06;5058635;28;20458;-55
2022/07/04 02:35:10;;;;;;;8.07;6.90;;;22.30;86.70;;;22.80;57.91;95196.44;5062924;28;20494;-54
2022/07/04 02:37:37;;;;;;;10.17;7.33;;;22.30;87.20;;;22.79;57.96;95191.28;5059307;28;20823;-54
2022/07/04 02:40:06;;;;;;;16.23;7.20;;;22.30;87.30;;;22.75;57.94;95193.56;5061269;28;20491;-55
2022/07/04 02:42:36;;;;;;;11.17;6.70;;;22.20;87.50;;;22.71;57.56;95200.38;5058500;28;20462;-55
2022/07/04 02:45:03;;;;;;;11.73;7.00;;;22.20;87.90;;;22.66;58.01;95210.91;5062362;28;20451;-54
2022/07/04 02:47:30;;;;;;;7.87;7.10;;;22.20;88.00;;;22.60;57.97;95209.06;5059061;28;20455;-54
2022/07/04 02:49:58;;;;;;;16.10;8.00;;;22.10;88.40;;;22.51;58.02;95211.94;5062364;28;20451;-55
2022/07/04 02:52:25;;;;;;;9.03;6.90;;;22.00;88.30;;;22.46;57.96;95217.06;5061116;28;20459;-56
2022/07/04 02:54:53;;;;;;;11.57;7.90;;;21.90;88.80;;;22.43;58.21;95217.50;5060404;28;20559;-55
2022/07/04 02:57:21;;;;;;;16.67;7.00;;;21.90;89.40;;;22.39;58.37;95216.28;5056119;28;21064;-55
2022/07/04 02:59:50;;;;;;;11.40;6.70;;;21.90;89.60;;;22.36;58.67;95216.69;5054487;28;21077;-55
2022/07/04 03:02:17;;;;;;;8.40;5.77;;;21.90;90.00;;;22.34;58.65;95219.56;5057765;28;20959;-56
2022/07/04 03:04:45;;;;;;;8.50;7.10;;;21.80;90.00;;;22.31;58.58;95217.28;5060107;28;20461;-57
2022/07/04 03:07:12;;;;;;;7.10;6.40;;;21.80;90.10;;;22.30;58.76;95220.16;5060370;28;20455;-55
2022/07/04 03:09:39;;;;;;;8.77;6.77;;;21.80;90.40;;;22.31;59.02;95232.56;5059252;28;20456;-56
2022/07/04 03:12:08;;;;;;;10.40;6.80;;;21.80;90.50;;;22.32;58.92;95223.47;5060105;28;20497;-56
2022/07/04 03:14:35;;;;;;;7.50;6.90;;;21.80;90.60;;;22.32;59.12;95220.78;5060866;28;20447;-55
2022/07/04 03:17:04;;;;;;;8.37;5.90;;;21.80;90.60;;;22.32;59.18;95220.78;5056978;28;20471;-56
2022/07/04 03:19:31;;;;;;;9.10;7.17;;;21.80;90.80;;;22.32;58.71;95223.47;5059671;28;20455;-55
2022/07/04 03:21:59;;;;;;;10.80;6.80;;;21.80;90.80;;;22.33;59.14;95222.44;5060716;28;20523;-55
2022/07/04 03:24:26;;;;;;;13.87;7.10;;;21.80;90.90;;;22.34;58.99;95229.47;5058373;28;20987;-55
2022/07/04 03:26:53;;;;;;;7.73;7.00;;;21.80;91.00;;;22.35;59.51;95234.63;5061293;28;20475;-55
2022/07/04 03:29:21;;;;;;;12.00;6.73;;;21.80;91.10;;;22.38;59.33;95236.06;5060904;28;20466;-54
2022/07/04 03:31:48;;;;;;;7.70;7.03;;;21.80;91.20;;;22.39;59.37;95240.38;5058765;28;20470;-56
2022/07/04 03:34:16;;;;;;;9.50;7.57;;;21.80;91.40;;;22.40;58.96;95228.63;5058818;28;20451;-56
2022/07/04 03:36:44;;;;;;;15.10;6.97;;;21.90;91.30;;;22.40;59.16;95233.97;5060045;28;21102;-56
2022/07/04 03:39:11;;;;;;;12.20;6.90;;;21.90;91.30;;;22.40;58.78;95235.84;5058442;28;20482;-56
2022/07/04 03:41:38;;;;;;;13.63;6.93;;;21.90;91.30;;;22.39;58.85;95232.34;5061001;28;20503;-56
2022/07/04 03:44:06;;;;;;;18.07;6.70;;;21.90;91.40;;;22.40;59.30;95230.47;5057676;28;20459;-56
2022/07/04 03:46:33;;;;;;;12.73;6.27;;;21.90;91.40;;;22.39;59.33;95237.72;5061543;28;20471;-55
2022/07/04 03:49:01;;;;;;;16.60;6.73;;;21.90;91.40;;;22.40;58.82;95236.66;5057981;28;20933;-55
2022/07/04 03:51:29;;;;;;;19.23;6.40;;;21.90;91.60;;;22.41;58.94;95218.75;5062037;28;20471;-54
2022/07/04 03:53:57;;;;;;;12.90;5.67;;;21.90;91.30;;;22.43;58.34;95227.41;5058398;28;20456;-56
2022/07/04 03:56:24;;;;;;;8.10;6.17;;;21.90;91.20;;;22.44;58.46;95227.19;5061889;28;20474;-54
2022/07/04 03:58:51;;;;;;;5.83;5.33;;;21.90;91.10;;;22.46;58.05;95229.66;5057035;28;20452;-55
2022/07/04 04:01:19;;;;;;;17.60;6.17;;;21.90;91.00;;;22.47;58.39;95232.13;5059874;28;20943;-56
2022/07/04 04:06:32;;;;;;;11.90;6.73;;;21.90;91.20;;;22.51;58.47;95233.41;5056209;28;20982;-56
2022/07/04 04:08:59;;;;;;;9.00;6.60;;;22.00;90.90;;;22.54;58.22;95230.31;5058830;28;20458;-53
2022/07/04 04:11:27;;;;;;;11.30;6.20;;;22.00;90.80;;;22.56;58.31;95227.41;5057759;28;20577;-55
2022/07/04 04:13:54;;;;;;;18.00;6.23;;;22.00;91.00;;;22.63;58.17;95230.09;5059087;28;20532;-55
2022/07/04 04:16:21;;;;;;;19.27;6.50;;;22.10;91.10;;;22.71;57.69;95229.88;5057809;28;20466;-56
2022/07/04 04:18:48;;;;;;;12.40;6.40;;;22.10;90.70;;;22.75;57.99;95228.44;5058166;28;20477;-55
2022/07/04 04:21:16;;;;;;;15.20;6.17;;;22.20;90.60;;;22.77;57.86;95236.28;5057031;28;20496;-56
2022/07/04 04:23:44;;;;;;;10.60;5.47;;;22.20;90.50;;;22.77;57.52;95244.31;5061020;28;20451;-54
2022/07/04 04:26:12;;;;;;;11.50;6.10;;;22.20;90.60;;;22.72;57.17;95234.22;5058464;28;20475;-55
2022/07/04 04:28:39;;;;;;;19.83;5.43;;;22.20;90.50;;;22.65;57.62;95239.59;5059779;28;20518;-55
2022/07/04 04:31:07;;;;;;;11.67;6.10;;;22.20;90.60;;;22.59;57.65;95237.72;5055090;28;20490;-56
2022/07/04 04:33:35;;;;;;;9.33;6.77;;;22.10;90.60;;;22.54;58.19;95243.72;5058855;28;20458;-56
2022/07/04 04:36:03;;;;;;;7.53;6.20;;;22.00;90.70;;;22.52;58.22;95243.06;5057288;28;20543;-55
2022/07/04 04:38:31;;;;;;;8.53;6.20;;;22.00;90.90;;;22.53;58.26;95249.28;5059897;28;20450;-54
2022/07/04 04:40:59;;;;;;;13.53;5.57;;;22.00;91.10;;;22.52;58.53;95245.75;5057314;28;20488;-56
2022/07/04 04:43:27;;;;;;;12.07;6.00;;;22.00;91.00;;;22.52;57.77;95248.44;5060457;28;20477;-55
2022/07/04 04:45:54;;;;;;;9.80;5.30;;;22.00;90.90;;;22.55;57.80;95244.53;5057303;28;20836;-55
2022/07/04 04:48:21;;;;;;;11.73;6.90;;;22.00;90.80;;;22.58;57.48;95237.94;5060907;28;20470;-55
2022/07/04 04:50:49;;;;;;;7.23;5.60;;;22.00;90.60;;;22.62;57.58;95244.50;5059513;28;20469;-56
2022/07/04 04:53:16;;;;;;;6.17;5.77;;;22.10;90.50;;;22.65;57.17;95244.09;5059171;28;20455;-56
2022/07/04 04:55:43;;;;;;;6.90;5.93;;;22.10;90.50;;;22.69;57.09;95245.34;5057590;28;20478;-55
2022/07/04 04:58:12;;;;;;;11.20;6.00;;;22.10;90.50;;;22.74;57.61;95242.88;5056567;28;20481;-55
2022/07/04 05:00:39;;;;;;;7.00;5.73;;;22.20;90.40;;;22.78;56.78;95244.13;5054543;28;21212;-58
2022/07/04 05:03:07;;;;;;;11.70;6.50;;;22.20;90.20;;;22.84;56.61;95240.59;5057144;28;20824;-56
2022/07/04 05:05:34;;;;;;;18.57;6.90;;;22.30;90.20;;;22.89;57.03;95251.53;5054036;28;21012;-56
2022/07/04 05:08:01;;;;;;;16.23;7.37;;;22.40;90.20;;;22.94;56.62;95244.72;5057022;28;20461;-55
2022/07/04 05:10:28;;;;;;;15.03;6.33;;;22.40;90.00;;;22.99;56.96;95243.09;5056429;28;20479;-56
2022/07/04 05:12:56;;;;;;;12.20;6.80;;;22.40;89.80;;;23.01;56.30;95238.31;5052845;28;20463;-55
2022/07/04 05:15:25;;;;;;;11.17;6.70;;;22.50;89.40;;;23.09;56.60;95242.69;5059515;28;20987;-55
2022/07/04 05:17:52;;;;;;;7.63;5.80;;;22.50;88.80;;;23.14;56.19;95237.50;5059508;28;20451;-56
2022/07/04 05:20:19;;;;;;;13.93;7.60;;;22.60;88.90;;;23.23;55.58;95244.28;5060290;28;20490;-55
2022/07/04 05:22:47;;;;;;;22.10;7.30;;;22.70;89.00;;;23.35;55.39;95238.31;5063110;28;20794;-56
2022/07/04 05:25:14;;;;;;;12.63;6.40;;;22.80;89.10;;;23.47;56.09;95236.63;5060313;28;20466;-55
2022/07/04 05:27:42;;;;;;;7.73;6.03;;;22.90;89.20;;;23.61;55.15;95237.41;5059785;28;20975;-56
2022/07/04 05:30:11;;;;;;;12.43;6.33;;;23.00;88.70;;;23.72;55.57;95244.78;5061927;28;20479;-56
2022/07/04 05:32:41;;;;;;;15.33;6.70;;;23.10;88.30;;;23.82;55.70;95247.00;5059608;28;20761;-57
2022/07/04 05:35:09;;;;;;;9.10;6.63;;;23.20;88.20;;;23.95;55.10;95233.56;5063488;28;20475;-56
2022/07/04 05:37:36;;;;;;;16.30;5.80;;;23.30;88.10;;;24.07;54.56;95240.94;5064275;28;20537;-56
2022/07/04 05:40:04;;;;;;;15.33;6.43;;;23.40;87.80;;;24.22;54.92;95238.78;5062460;28;20581;-55
2022/07/04 05:42:31;;;;;;;10.77;6.40;;;23.60;87.50;;;24.36;53.93;95244.06;5060278;28;20448;-56
2022/07/04 05:44:58;;;;;;;21.03;7.93;;;23.70;86.10;;;24.51;54.16;95242.72;5063087;28;20447;-55
2022/07/04 05:47:26;;;;;;;7.17;5.30;;;23.80;86.00;;;24.68;53.91;95240.34;5060284;28;20968;-56
2022/07/04 05:49:55;;;;;;;14.53;6.30;;;24.00;85.70;;;24.84;53.32;95238.16;5063450;28;20508;-55
2022/07/04 05:52:22;;;;;;;9.77;6.17;;;24.10;84.50;;;25.00;53.09;95234.91;5061850;28;20966;-56
2022/07/04 05:54:50;;;;;;;13.53;5.70;;;24.30;84.40;;;25.15;52.86;95231.03;5063622;28;20799;-57
2022/07/04 05:57:17;;;;;;;11.80;6.70;;;24.40;83.50;;;25.25;52.00;95239.41;5057963;28;20815;-55
2022/07/04 05:59:45;;;;;;;11.10;5.30;;;24.50;82.90;;;25.39;52.35;95232.06;5062482;28;20453;-58
2022/07/04 06:02:13;;;;;;;12.17;6.30;;;24.70;82.60;;;25.54;51.27;95237.09;5058411;28;20526;-56
2022/07/04 06:04:40;;;;;;;15.50;7.43;;;24.80;81.00;;;25.67;50.44;95236.94;5062510;28;20457;-58
2022/07/04 06:07:08;;;;;;;8.60;6.10;;;24.90;79.50;;;25.84;50.95;95239.00;5057453;28;20991;-57
2022/07/04 06:09:36;;;;;;;11.33;6.07;;;25.10;80.10;;;25.95;50.22;95236.38;5063844;28;20450;-56
2022/07/04 06:12:04;;;;;;;10.17;6.27;;;25.20;78.80;;;26.01;49.76;95233.84;5059402;28;21029;-56
2022/07/04 06:14:31;;;;;;;5.93;5.20;;;25.30;77.50;;;26.08;49.65;95246.19;5062669;28;20462;-56
2022/07/04 06:16:59;;;;;;;13.10;6.27;;;25.40;77.40;;;26.18;49.30;95234.03;5063065;28;20470;-55
2022/07/04 06:19:26;;;;;;;10.70;5.33;;;25.50;76.80;;;26.27;49.37;95236.19;5059185;28;20446;-56
2022/07/04 06:21:53;;;;;;;6.47;5.83;;;25.60;76.60;;;26.45;49.04;95240.69;5060296;28;20493;-55
2022/07/04 06:24:22;;;;;;;8.60;5.70;;;25.70;76.10;;;26.63;48.67;95241.66;5061526;28;20965;-55
2022/07/04 06:26:50;;;;;;;5.87;5.27;;;25.90;75.10;;;26.79;48.66;95241.03;5062361;28;20988;-56
2022/07/04 06:29:17;;;;;;;7.63;4.90;;;26.00;74.90;;;26.93;48.00;95232.72;5059450;28;20453;-57
2022/07/04 06:31:44;;;;;;;7.37;4.07;;;26.20;73.90;;;27.05;47.43;95235.41;5058429;28;20474;-55
2022/07/04 06:36:56;;;;;;;6.43;4.27;;;26.40;71.60;;;27.30;45.78;95229.78;5062182;28;20458;-56
2022/07/04 06:39:25;;;;;;;15.80;4.57;;;26.50;69.40;;;27.48;45.63;95228.84;5058160;28;20535;-56
2022/07/04 06:41:52;;;;;;;7.53;4.60;;;26.70;68.50;;;27.68;45.33;95237.38;5061868;28;20498;-56
2022/07/04 06:44:19;;;;;;;11.93;3.80;;;26.90;67.80;;;27.89;44.52;95230.53;5059188;28;20466;-56
2022/07/04 06:46:47;;;;;;;11.87;3.80;;;27.10;66.90;;;28.08;44.72;95235.78;5062502;28;20477;-56
2022/07/04 06:49:14;;;;;;;3.90;3.60;;;27.30;66.40;;;28.26;43.89;95219.34;5058834;28;20493;-55
2022/07/04 06:51:42;;;;;;;6.43;4.73;;;27.50;65.90;;;28.43;43.64;95211.28;5063395;28;20890;-55
2022/07/04 06:54:09;;;;;;;11.53;5.13;;;27.70;65.30;;;28.60;44.05;95214.03;5054900;28;20448;-56
2022/07/04 06:56:38;;;;;;;9.93;4.63;;;27.80;64.60;;;28.77;43.73;95215.94;5062145;28;20863;-56
2022/07/04 06:59:05;;;;;;;6.87;5.00;;;28.00;63.90;;;28.89;42.60;95218.53;5059159;28;20829;-57
2022/07/04 07:01:32;;;;;;;14.90;4.17;;;28.10;62.60;;;29.01;42.62;95215.75;5061797;28;20494;-57
2022/07/04 07:04:00;;;;;;;15.50;4.13;;;28.20;62.50;;;29.13;42.19;95213.78;5059016;28;20495;-56
2022/07/04 07:06:27;;;;;;;7.43;4.50;;;28.30;61.90;;;29.23;41.97;95211.22;5057713;28;20586;-58
2022/07/04 07:08:54;;;;;;;10.07;4.90;;;28.40;61.30;;;29.22;41.52;95215.03;5060055;28;20454;-57
2022/07/04 07:11:22;;;;;;;6.37;4.10;;;28.40;60.00;;;29.21;41.26;95212.56;5061309;28;20466;-56
2022/07/04 07:13:51;;;;;;;13.70;4.33;;;28.40;59.70;;;29.27;41.68;95212.38;5058821;28;20482;-57
2022/07/04 07:16:19;;;;;;;25.00;3.87;;;28.50;59.30;;;29.32;40.96;95212.44;5059498;28;20475;-58
2022/07/04 07:18:46;;;;;;;7.33;3.70;;;28.50;59.20;;;29.40;41.40;95204.97;5058573;28;20481;-57
2022/07/04 07:21:13;;;;;;;5.90;4.23;;;28.60;58.80;;;29.46;40.51;95203.97;5058793;28;20524;-56
2022/07/04 07:23:41;;;;;;;14.23;4.40;;;28.70;58.40;;;29.55;40.43;95202.47;5059377;28;20465;-56
2022/07/04 07:26:08;;;;;;;8.90;4.43;;;28.80;58.30;;;29.68;41.05;95199.38;5060589;28;20999;-56
2022/07/04 07:28:36;;;;;;;12.80;4.03;;;28.90;58.20;;;29.83;39.80;95203.38;5058843;28;20768;-58
2022/07/04 07:31:04;;;;;;;10.73;3.60;;;29.00;57.30;;;29.85;40.00;95201.22;5057983;28;21056;-56
2022/07/04 07:33:32;;;;;;;8.77;4.27;;;29.10;56.90;;;29.85;39.59;95203.94;5059818;28;20451;-57
2022/07/04 07:35:59;;;;;;;18.60;3.80;;;29.10;56.50;;;29.81;39.43;95198.19;5058205;28;20478;-56
2022/07/04 07:38:26;;;;;;;14.47;4.47;;;29.10;55.80;;;29.77;38.96;95198.94;5057200;28;20450;-56
2022/07/04 07:40:53;;;;;;;4.43;4.00;;;29.00;55.70;;;29.81;39.10;95205.53;5057692;28;20487;-56
2022/07/04 07:43:21;;;;;;;14.80;3.93;;;29.00;55.90;;;29.90;39.71;95195.03;5061361;28;20447;-56
2022/07/04 07:45:48;;;;;;;7.43;3.30;;;29.10;55.80;;;30.07;39.16;95192.25;5058232;28;20481;-57
2022/07/04 07:48:17;;;;;;;10.93;4.67;;;29.20;55.80;;;30.29;39.64;95198.44;5060344;28;20446;-55
2022/07/04 07:50:44;;;;;;;14.60;4.93;;;29.40;55.90;;;30.52;39.22;95193.78;5061267;28;20458;-57
2022/07/04 07:53:12;;;;;;;9.20;4.20;;;29.70;55.80;;;30.69;38.38;95194.50;5059530;28;20200;-56
2022/07/04 07:55:39;;;;;;;9.50;4.80;;;29.80;55.20;;;30.91;39.28;95190.88;5061397;28;20734;-57
2022/07/04 07:58:06;;;;;;;16.80;4.27;;;30.00;55.10;;;31.09;38.32;95192.38;5058722;28;20482;-56
2022/07/04 08:00:33;;;;;;;15.63;5.13;;;30.20;54.80;;;31.25;38.27;95194.13;5057690;28;20217;-57
2022/07/04 08:05:47;;;;;;;10.20;4.93;;;30.60;54.70;;;31.61;38.78;95190.81;5057959;28;20277;-55
2022/07/04 08:08:14;;;;;;;5.07;3.80;;;30.80;54.70;;;31.82;37.89;95188.97;5059094;28;20623;-56
2022/07/04 08:10:42;;;;;;;10.70;4.30;;;30.90;54.30;;;32.00;37.85;95190.41;5060401;28;20220;-55
2022/07/04 08:13:09;;;;;;;12.70;4.60;;;31.10;53.90;;;32.12;37.45;95184.75;5057534;28;20215;-57
2022/07/04 08:15:37;;;;;;;11.07;4.43;;;31.30;53.50;;;32.11;37.72;95178.47;5056882;28;20578;-56
2022/07/04 08:18:04;;;;;;;10.20;4.20;;;31.30;53.30;;;32.21;37.57;95182.31;5056488;28;20220;-57
2022/07/04 08:20:31;;;;;;;12.93;5.03;;;31.40;53.50;;;32.33;37.84;95178.28;5060336;28;20220;-56
2022/07/04 08:23:00;;;;;;;5.23;4.50;;;31.50;53.40;;;32.42;37.32;95178.53;5058748;28;20228;-57
2022/07/04 08:25:28;;;;;;;11.93;4.30;;;31.60;53.10;;;32.45;37.33;95179.91;5060003;28;20252;-58
2022/07/04 08:27:55;;;;;;;14.30;4.27;;;31.60;52.50;;;32.40;37.06;95171.75;5056501;28;20205;-55
2022/07/04 08:30:23;;;;;;;5.40;4.07;;;31.60;52.00;;;32.38;37.13;95166.56;5058126;28;20233;-57
2022/07/04 08:32:50;;;;;;;18.45;4.70;;;31.60;51.90;;;32.39;36.62;95168.19;5056376;28;20251;-55
2022/07/04 08:35:17;;;;;;;5.10;4.17;;;31.60;51.80;;;32.30;37.15;95165.19;5059812;28;20224;-56
2022/07/04 08:37:44;;;;;;;7.63;4.78;;;31.50;51.80;;;32.39;36.83;95157.28;5056962;28;20205;-55
2022/07/04 08:40:14;;;;;;;10.57;5.10;;;31.60;52.30;;;32.56;37.11;95161.66;5060368;28;20755;-56
2022/07/04 08:42:41;;;;;;;12.75;6.45;;;31.70;52.20;;;32.70;37.19;95169.06;5057165;28;20286;-55
2022/07/04 08:45:09;;;;;;;11.00;5.07;;;31.90;52.00;;;32.84;37.01;95154.88;5060700;28;20228;-58
2022/07/04 08:47:38;;;;;;;9.88;5.00;;;32.00;52.00;;;33.03;36.73;95166.03;5057285;28;20304;-57
2022/07/04 08:50:11;;;;;;;5.25;4.72;;;32.20;52.10;;;33.26;36.51;95164.66;5060458;28;20228;-55
2022/07/04 08:52:40;;;;;;;14.50;5.40;;;32.40;51.80;;;33.45;36.67;95159.44;5062556;28;20287;-55
2022/07/04 09:00:37;;;;;;;12.77;5.90;;;32.60;50.90;;;33.52;36.24;95154.47;5059303;28;20247;-56
2022/07/04 09:03:04;;;;;;;10.20;5.43;;;32.70;50.70;;;33.66;35.74;95159.34;5062318;28;20251;-56
2022/07/04 09:05:33;;;;;;;8.80;5.63;;;32.80;50.70;;;33.82;34.99;95160.94;5060944;28;20824;-57
2022/07/04 09:08:00;;;;;;;14.68;6.85;;;32.90;48.80;;;33.88;36.14;95162.56;5060614;28;20290;-55
2022/07/04 09:10:27;;;;;;;25.70;6.20;;;33.10;50.40;;;33.88;35.43;95162.56;5060066;28;20220;-57
2022/07/04 09:12:56;;;;;;;10.10;5.75;;;33.10;50.00;;;33.94;35.90;95157.88;5063038;28;20250;-55
2022/07/04 09:15:23;;;;;;;9.50;5.45;;;33.10;50.20;;;34.08;35.82;95150.72;5061335;28;20220;-56
2022/07/04 09:17:51;;;;;;;12.35;6.22;;;33.20;50.20;;;34.24;35.01;95156.91;5058562;28;20283;-56
2022/07/04 09:20:19;;;;;;;13.95;5.50;;;33.40;49.60;;;34.34;34.99;95147.03;5062401;28;20220;-55
2022/07/04 09:22:48;;;;;;;10.73;5.93;;;33.50;49.70;;;34.32;34.99;95152.78;5057390;28;20228;-56
2022/07/04 09:25:15;;;;;;;17.73;4.55;;;33.50;48.80;;;34.25;34.82;95153.06;5060805;28;20580;-57
2022/07/04 09:27:45;;;;;;;20.40;5.35;;;33.50;49.20;;;34.26;35.49;95146.53;5061668;28;20612;-56
2022/07/04 09:30:14;;;;;;;5.63;4.18;;;33.50;49.40;;;34.35;35.94;95154.09;5062192;28;20615;-56
2022/07/04 09:32:42;;;;;;;5.40;5.00;;;33.50;49.60;;;34.37;35.02;95155.47;5059199;28;20208;-57
2022/07/04 09:35:11;;;;;;;7.90;4.63;;;33.60;48.90;;;34.29;34.71;95148.69;5058361;28;20744;-55
2022/07/04 09:37:40;;;;;;;8.35;4.65;;;33.50;48.10;;;34.25;34.73;95139.41;5060330;28;20212;-57
2022/07/04 09:40:09;;;;;;;8.80;4.85;;;33.50;47.30;;;34.29;33.79;95136.97;5063056;28;20242;-56
2022/07/04 09:42:40;;;;;;;8.18;5.28;;;33.50;48.40;;;34.36;33.70;95136.63;5061118;28;20319;-56
2022/07/04 09:45:13;;;;;;;7.90;5.00;;;33.50;47.30;;;34.30;34.33;95125.75;5063554;28;20231;-56
2022/07/04 09:47:42;;;;;;;7.10;5.40;;;33.50;47.30;;;34.32;34.23;95135.56;5059952;28;20201;-55
2022/07/04 09:50:11;;;;;;;8.70;4.55;;;33.50;48.80;;;34.34;34.82;95123.25;5063694;28;20227;-56
2022/07/04 09:52:53;;;;;;;5.05;4.65;;;33.50;47.90;;;34.30;34.02;95122.19;5062017;28;20623;-55
2022/07/04 09:55:28;;;;;;;14.63;4.57;;;33.50;47.30;;;34.27;34.16;95122.75;5061476;28;20295;-56
2022/07/04 09:57:56;;;;;;;11.43;5.65;;;33.50;47.80;;;34.30;33.59;95128.47;5060663;28;20204;-57
2022/07/04 10:00:27;;;;;;;7.95;5.40;;;33.50;47.30;;;34.30;33.51;95128.47;5059933;28;20224;-55
2022/07/04 10:02:55;;;;;;;5.03;4.57;;;33.60;47.20;;;34.27;34.11;95117.28;5060780;28;20220;-56
2022/07/04 10:05:25;;;;;;;10.05;5.35;;;33.50;46.60;;;34.25;34.04;95128.50;5059306;28;20333;-58
2022/07/04 10:07:53;;;;;;;6.68;5.05;;;33.50;46.80;;;34.22;33.64;95129.06;5063205;28;20204;-56
2022/07/04 10:10:32;;;;;;;10.32;5.40;;;33.50;46.90;;;34.16;34.10;95126.63;5059149;28;20228;-56
2022/07/04 10:13:03;;;;;;;6.65;5.70;;;33.40;47.00;;;34.12;34.36;95126.38;5059663;28;20241;-57
2022/07/04 10:15:31;;;;;;;6.20;5.20;;;33.40;47.30;;;34.10;34.10;95120.41;5063409;28;20216;-55
2022/07/04 10:17:59;;;;;;;9.57;5.22;;;33.30;46.70;;;34.10;34.67;95113.03;5058101;28;20197;-56
2022/07/04 10:20:26;;;;;;;6.05;4.93;;;33.30;47.20;;;34.13;33.96;95117.91;5059621;28;20247;-58
2022/07/04 10:22:54;;;;;;;4.72;4.43;;;33.40;47.20;;;34.17;34.27;95126.34;5059685;28;20624;-57
2022/07/04 10:25:21;;;;;;;15.60;5.68;;;33.40;47.30;;;34.11;33.36;95120.13;5061206;28;20703;-56
2022/07/04 10:27:50;;;;;;;9.02;5.80;;;33.30;46.60;;;34.01;33.66;95119.38;5059991;28;20204;-56
2022/07/04 10:30:25;;;;;;;16.08;6.15;;;33.30;47.00;;;33.94;34.08;95120.50;5062068;28;20216;-57
2022/07/04 10:32:54;;;;;;;7.03;5.60;;;33.20;47.20;;;33.98;34.32;95115.28;5057242;28;20219;-55
2022/07/04 10:35:50;;;;;;;16.77;5.22;;;33.20;47.20;;;33.95;34.08;95108.47;5061911;28;20220;-57
2022/07/04 10:38:17;;;;;;;5.43;5.07;;;33.20;47.10;;;33.94;34.17;95098.66;5061113;28;20200;-57
2022/07/04 10:40:49;;;;;;;10.75;5.25;;;33.20;47.70;;;34.01;34.89;95100.25;5058665;28;20225;-56